Observation data for Reese Center on 05/18/2018      Previous  Date       Current Mesonet Observations  Soil Data  Daily Summary Page  Observations in Plain Language
KREE 180500Z 11018KT 19/13 A299 RMK A01 T01890134  RH  072%=      5-min Rain = 0
KREE 180505Z 11017KT 19/13 A299 RMK A01 T01890133  RH  071%=      5-min Rain = 0
KREE 180510Z 11016KT 19/13 A299 RMK A01 T01890132  RH  071%=      5-min Rain = 0
KREE 180515Z 11016G21KT 19/13 A299 RMK A01 T01880132  RH  071%=      5-min Rain = 0
KREE 180520Z 11015KT 19/13 A299 RMK A01 T01870133  RH  072%=      5-min Rain = 0
KREE 180525Z 11015KT 19/13 A299 RMK A01 T01860133  RH  073%=      5-min Rain = 0
KREE 180530Z 11016KT 19/13 A299 RMK A01 T01860133  RH  073%=      5-min Rain = 0
KREE 180535Z 11017KT 19/13 A299 RMK A01 T01850133  RH  073%=      5-min Rain = 0
KREE 180540Z 11017G22KT 19/13 A2989 RMK A01 T01850133  RH  073%=      5-min Rain = 0
KREE 180545Z 11016KT 18/13 A2989 RMK A01 T01830133  RH  074%=      5-min Rain = 0
KREE 180550Z 11016KT 18/13 A2989 RMK A01 T01820134  RH  075%=      5-min Rain = 0
KREE 180555Z 11016G21KT 18/13 A2989 RMK A01 T01810134  RH  075%=      5-min Rain = 0
KREE 180600Z 11015G20KT 18/13 A2989 RMK A01 T01800134  RH  076%=      5-min Rain = 0
KREE 180605Z 11016KT 18/13 A2989 RMK A01 T01800134  RH  076%=      5-min Rain = 0
KREE 180610Z 10015KT 18/14 A2989 RMK A01 T01790135  RH  077%=      5-min Rain = 0
KREE 180615Z 11014KT 18/14 A2989 RMK A01 T01770135  RH  078%=      5-min Rain = 0
KREE 180620Z 11014KT 18/14 A2989 RMK A01 T01760135  RH  078%=      5-min Rain = 0
KREE 180625Z 11015KT 18/14 A2989 RMK A01 T01760135  RH  079%=      5-min Rain = 0
KREE 180630Z 11015KT 18/14 A2989 RMK A01 T01760135  RH  079%=      5-min Rain = 0
KREE 180635Z 11016G21KT 18/14 A2988 RMK A01 T01760135  RH  079%=      5-min Rain = 0
KREE 180640Z 11017KT 18/13 A2988 RMK A01 T01770134  RH  077%=      5-min Rain = 0
KREE 180645Z 11019G25KT 18/13 A2988 RMK A01 T01780132  RH  076%=      5-min Rain = 0
KREE 180650Z 11019KT 18/13 A2987 RMK A01 T01780131  RH  075%=      5-min Rain = 0
KREE 180655Z 11017KT 18/13 A2987 RMK A01 T01760131  RH  076%=      5-min Rain = 0
KREE 180700Z 11017G24KT 18/13 A2987 RMK A01 T01750131  RH  077%=      5-min Rain = 0
KREE 180705Z 11018G24KT 17/13 A2987 RMK A01 T01740132  RH  078%=      5-min Rain = 0
KREE 180710Z 11017G24KT 17/13 A2987 RMK A01 T01730133  RH  079%=      5-min Rain = 0
KREE 180715Z 11018G24KT 17/13 A2987 RMK A01 T01730133  RH  079%=      5-min Rain = 0
KREE 180720Z 11018KT 17/13 A2987 RMK A01 T01720133  RH  080%=      5-min Rain = 0
KREE 180725Z 11018G23KT 17/13 A2986 RMK A01 T01710134  RH  080%=      5-min Rain = 0
KREE 180730Z 11019G24KT 17/13 A2986 RMK A01 T01710134  RH  080%=      5-min Rain = 0
KREE 180735Z 11015KT 17/13 A2986 RMK A01 T01690134  RH  081%=      5-min Rain = 0
KREE 180740Z 11018G25KT 17/13 A2986 RMK A01 T01690133  RH  081%=      5-min Rain = 0
KREE 180745Z 11019KT 17/13 A2986 RMK A01 T01700134  RH  081%=      5-min Rain = 0
KREE 180750Z 11019G25KT 17/13 A2986 RMK A01 T01690134  RH  081%=      5-min Rain = 0
KREE 180755Z 11019G24KT 17/13 A2985 RMK A01 T01680134  RH  082%=      5-min Rain = 0
KREE 180800Z 12019G24KT 17/13 A2985 RMK A01 T01680133  RH  081%=      5-min Rain = 0
KREE 180805Z 11018G23KT 17/13 A2985 RMK A01 T01680133  RH  082%=      5-min Rain = 0
KREE 180810Z 11018G24KT 17/13 A2985 RMK A01 T01670133  RH  081%=      5-min Rain = 0
KREE 180815Z 12017G24KT 17/13 A2985 RMK A01 T01670132  RH  082%=      5-min Rain = 0
KREE 180820Z 12017G22KT 17/13 A2985 RMK A01 T01660132  RH  082%=      5-min Rain = 0
KREE 180825Z 12017KT 17/13 A2985 RMK A01 T01670132  RH  082%=      5-min Rain = 0
KREE 180830Z 12016G21KT 17/13 A2985 RMK A01 T01660132  RH  082%=      5-min Rain = 0
KREE 180835Z 12016G21KT 17/13 A2985 RMK A01 T01650132  RH  082%=      5-min Rain = 0
KREE 180840Z 12015KT 16/13 A2985 RMK A01 T01640132  RH  083%=      5-min Rain = 0
KREE 180845Z 12016KT 17/13 A2985 RMK A01 T01650131  RH  082%=      5-min Rain = 0
KREE 180850Z 12016KT 17/13 A2984 RMK A01 T01650130  RH  081%=      5-min Rain = 0
KREE 180855Z 12016KT 17/13 A2984 RMK A01 T01650130  RH  081%=      5-min Rain = 0
KREE 180900Z 12014KT 16/13 A2984 RMK A01 T01640129  RH  081%=      5-min Rain = 0
KREE 180905Z 12014KT 16/13 A2984 RMK A01 T01640129  RH  081%=      5-min Rain = 0
KREE 180910Z 12013KT 16/13 A2984 RMK A01 T01640129  RH  082%=      5-min Rain = 0
KREE 180915Z 12013KT 16/13 A2984 RMK A01 T01640129  RH  082%=      5-min Rain = 0
KREE 180920Z 12013KT 16/13 A2984 RMK A01 T01630129  RH  082%=      5-min Rain = 0
KREE 180925Z 12012G17KT 16/13 A2984 RMK A01 T01630129  RH  082%=      5-min Rain = 0
KREE 180930Z 12014KT 16/13 A2984 RMK A01 T01630130  RH  082%=      5-min Rain = 0
KREE 180935Z 12015G21KT 16/13 A2984 RMK A01 T01630130  RH  082%=      5-min Rain = 0
KREE 180940Z 12014KT 16/13 A2984 RMK A01 T01620130  RH  083%=      5-min Rain = 0
KREE 180945Z 12014G19KT 16/13 A2984 RMK A01 T01610130  RH  084%=      5-min Rain = 0
KREE 180950Z 13014KT 16/13 A2984 RMK A01 T01600131  RH  084%=      5-min Rain = 0
KREE 180955Z 12015KT 16/13 A2984 RMK A01 T01600131  RH  084%=      5-min Rain = 0
KREE 181000Z 13014G19KT 16/13 A2984 RMK A01 T01590131  RH  085%=      5-min Rain = 0
KREE 181005Z 13012KT 16/13 A2984 RMK A01 T01580131  RH  085%=      5-min Rain = 0
KREE 181010Z 13013KT 16/13 A2984 RMK A01 T01580131  RH  086%=      5-min Rain = 0
KREE 181015Z 13013G18KT 16/13 A2984 RMK A01 T01580131  RH  086%=      5-min Rain = 0
KREE 181020Z 13012KT 16/13 A2984 RMK A01 T01570131  RH  086%=      5-min Rain = 0
KREE 181025Z 13012KT 16/13 A2984 RMK A01 T01560131  RH  087%=      5-min Rain = 0
KREE 181030Z 13012KT 16/13 A2983 RMK A01 T01560131  RH  087%=      5-min Rain = 0
KREE 181035Z 13013KT 16/13 A2983 RMK A01 T01560132  RH  087%=      5-min Rain = 0
KREE 181040Z 13013G18KT 16/13 A2983 RMK A01 T01560132  RH  087%=      5-min Rain = 0
KREE 181045Z 13012KT 16/13 A2983 RMK A01 T01550132  RH  088%=      5-min Rain = 0
KREE 181050Z 13014KT 16/13 A2983 RMK A01 T01550132  RH  088%=      5-min Rain = 0
KREE 181055Z 13013G18KT 16/13 A2983 RMK A01 T01560132  RH  088%=      5-min Rain = 0
KREE 181100Z 13014KT 16/13 A2983 RMK A01 T01550132  RH  088%=      5-min Rain = 0
KREE 181105Z 13013KT 16/13 A2983 RMK A01 T01550132  RH  088%=      5-min Rain = 0
KREE 181110Z 13013KT 16/13 A2983 RMK A01 T01550132  RH  088%=      5-min Rain = 0
KREE 181115Z 13014KT 16/13 A2983 RMK A01 T01550132  RH  088%=      5-min Rain = 0
KREE 181120Z 13014KT 16/13 A2982 RMK A01 T01550132  RH  088%=      5-min Rain = 0
KREE 181125Z 13014KT 16/13 A2982 RMK A01 T01550132  RH  088%=      5-min Rain = 0
KREE 181130Z 13013KT 16/13 A2982 RMK A01 T01550132  RH  088%=      5-min Rain = 0
KREE 181135Z 13012G17KT 15/13 A2982 RMK A01 T01540132  RH  088%=      5-min Rain = 0
KREE 181140Z 13012KT 15/13 A2982 RMK A01 T01540132  RH  088%=      5-min Rain = 0
KREE 181145Z 13013KT 15/13 A2982 RMK A01 T01530132  RH  089%=      5-min Rain = 0
KREE 181150Z 13014KT 16/13 A2982 RMK A01 T01550132  RH  088%=      5-min Rain = 0
KREE 181155Z 14014KT 16/13 A2981 RMK A01 T01550132  RH  088%=      5-min Rain = 0
KREE 181200Z 14014G19KT 16/13 A2981 RMK A01 T01560133  RH  088%=      5-min Rain = 0
KREE 181205Z 14015KT 16/13 A2981 RMK A01 T01570133  RH  087%=      5-min Rain = 0
KREE 181210Z 14016KT 16/13 A2981 RMK A01 T01580133  RH  087%=      5-min Rain = 0
KREE 181215Z 14016KT 16/13 A2981 RMK A01 T01600134  RH  086%=      5-min Rain = 0
KREE 181220Z 14015G21KT 16/13 A2981 RMK A01 T01620134  RH  085%=      5-min Rain = 0
KREE 181225Z 14015KT 16/14 A2981 RMK A01 T01620135  RH  085%=      5-min Rain = 0
KREE 181230Z 14015G20KT 16/14 A2981 RMK A01 T01630135  RH  085%=      5-min Rain = 0
KREE 181235Z 14014G20KT 16/14 A2981 RMK A01 T01640136  RH  085%=      5-min Rain = 0
KREE 181240Z 14017G23KT 17/14 A2981 RMK A01 T01670136  RH  084%=      5-min Rain = 0
KREE 181245Z 14017G22KT 17/14 A2981 RMK A01 T01700137  RH  082%=      5-min Rain = 0
KREE 181250Z 14017G22KT 17/14 A2981 RMK A01 T01720137  RH  081%=      5-min Rain = 0
KREE 181255Z 14015G20KT 17/14 A2981 RMK A01 T01740137  RH  081%=      5-min Rain = 0
KREE 181300Z 14015G20KT 18/14 A2981 RMK A01 T01760138  RH  080%=      5-min Rain = 0
KREE 181305Z 14015G21KT 18/14 A2981 RMK A01 T01770138  RH  079%=      5-min Rain = 0
KREE 181310Z 14015G21KT 18/14 A2981 RMK A01 T01790138  RH  078%=      5-min Rain = 0
KREE 181315Z 14015KT 18/14 A2982 RMK A01 T01820138  RH  077%=      5-min Rain = 0
KREE 181320Z 14015G21KT 19/14 A2982 RMK A01 T01850138  RH  076%=      5-min Rain = 0
KREE 181325Z 14015KT 19/14 A2982 RMK A01 T01880136  RH  073%=      5-min Rain = 0
KREE 181330Z 14014KT 19/14 A2982 RMK A01 T01930137  RH  071%=      5-min Rain = 0
KREE 181335Z 14015G21KT 20/14 A2982 RMK A01 T01960137  RH  070%=      5-min Rain = 0
KREE 181340Z 14016G21KT 20/14 A2982 RMK A01 T01980136  RH  069%=      5-min Rain = 0
KREE 181345Z 14017KT 20/13 A2982 RMK A01 T02010134  RH  067%=      5-min Rain = 0
KREE 181350Z 14016G23KT 20/13 A2982 RMK A01 T02030134  RH  066%=      5-min Rain = 0
KREE 181355Z 14016G21KT 21/13 A2982 RMK A01 T02050134  RH  065%=      5-min Rain = 0
KREE 181400Z 15015KT 21/14 A2982 RMK A01 T02070135  RH  065%=      5-min Rain = 0
KREE 181405Z 15015G22KT 21/14 A2982 RMK A01 T02090136  RH  064%=      5-min Rain = 0
KREE 181410Z 15016KT 21/14 A2982 RMK A01 T02100136  RH  064%=      5-min Rain = 0
KREE 181415Z 15015G20KT 21/14 A2982 RMK A01 T02100137  RH  064%=      5-min Rain = 0
KREE 181420Z 15017KT 21/14 A2982 RMK A01 T02110137  RH  064%=      5-min Rain = 0
KREE 181425Z 16017KT 21/14 A2982 RMK A01 T02140138  RH  063%=      5-min Rain = 0
KREE 181430Z 16018KT 22/14 A2981 RMK A01 T02170138  RH  062%=      5-min Rain = 0
KREE 181435Z 16018KT 22/14 A2981 RMK A01 T02210138  RH  061%=      5-min Rain = 0
KREE 181440Z 17018G25KT 23/14 A2981 RMK A01 T02250136  RH  058%=      5-min Rain = 0
KREE 181445Z 16020KT 23/13 A2981 RMK A01 T02310132  RH  055%=      5-min Rain = 0
KREE 181450Z 17019G24KT 24/13 A2981 RMK A01 T02350131  RH  053%=      5-min Rain = 0
KREE 181455Z 17020G25KT 24/13 A2981 RMK A01 T02390130  RH  051%=      5-min Rain = 0
KREE 181500Z 17020G25KT 24/13 A2981 RMK A01 T02410127  RH  050%=      5-min Rain = 0
KREE 181505Z 17021G27KT 24/13 A2981 RMK A01 T02420126  RH  049%=      5-min Rain = 0
KREE 181510Z 17021G26KT 24/13 A2981 RMK A01 T02420126  RH  049%=      5-min Rain = 0
KREE 181515Z 17019G25KT 25/13 A2981 RMK A01 T02460127  RH  048%=      5-min Rain = 0
KREE 181520Z 17020G25KT 25/13 A2981 RMK A01 T02470126  RH  048%=      5-min Rain = 0
KREE 181525Z 17020G25KT 25/13 A2981 RMK A01 T02490126  RH  047%=      5-min Rain = 0
KREE 181530Z 17020G26KT 26/13 A2982 RMK A01 T02550126  RH  045%=      5-min Rain = 0
KREE 181535Z 18019G25KT 26/12 A2982 RMK A01 T02560123  RH  044%=      5-min Rain = 0
KREE 181540Z 18020G27KT 26/12 A2982 RMK A01 T02610122  RH  043%=      5-min Rain = 0
KREE 181545Z 17018G23KT 26/12 A2981 RMK A01 T02640124  RH  043%=      5-min Rain = 0
KREE 181550Z 18018G24KT 27/12 A2982 RMK A01 T02690123  RH  041%=      5-min Rain = 0
KREE 181555Z 18020KT 27/12 A2981 RMK A01 T02670121  RH  041%=      5-min Rain = 0
KREE 181600Z 18020G25KT 27/12 A2981 RMK A01 T02700120  RH  040%=      5-min Rain = 0
KREE 181605Z 19021KT 27/12 A2981 RMK A01 T02690117  RH  039%=      5-min Rain = 0
KREE 181610Z 19020KT 27/12 A2981 RMK A01 T02680117  RH  040%=      5-min Rain = 0
KREE 181615Z 18018G24KT 27/12 A2981 RMK A01 T02690119  RH  040%=      5-min Rain = 0
KREE 181620Z 18018G23KT 28/12 A2981 RMK A01 T02750115  RH  038%=      5-min Rain = 0
KREE 181625Z 19019G24KT 27/12 A2981 RMK A01 T02680115  RH  039%=      5-min Rain = 0
KREE 181630Z 19019KT 27/11 A2981 RMK A01 T02710114  RH  038%=      5-min Rain = 0
KREE 181635Z 18019G24KT 27/11 A2981 RMK A01 T02730113  RH  037%=      5-min Rain = 0
KREE 181640Z 18018G25KT 27/11 A2981 RMK A01 T02720112  RH  038%=      5-min Rain = 0
KREE 181645Z 19017G23KT 27/11 A2981 RMK A01 T02740113  RH  037%=      5-min Rain = 0
KREE 181650Z 19017KT 27/11 A2981 RMK A01 T02740113  RH  037%=      5-min Rain = 0
KREE 181655Z 19016KT 27/12 A2981 RMK A01 T02700116  RH  039%=      5-min Rain = 0
KREE 181700Z 20018G23KT 28/11 A2981 RMK A01 T02810110  RH  035%=      5-min Rain = 0
KREE 181705Z 19018KT 28/11 A2981 RMK A01 T02780107  RH  035%=      5-min Rain = 0
KREE 181710Z 18016G22KT 28/11 A2981 RMK A01 T02810109  RH  035%=      5-min Rain = 0
KREE 181715Z 19017G22KT 29/11 A2981 RMK A01 T02890106  RH  033%=      5-min Rain = 0
KREE 181720Z 19018KT 29/10 A2981 RMK A01 T02870100  RH  032%=      5-min Rain = 0
KREE 181725Z 19016G24KT 28/10 A298 RMK A01 T02810104  RH  034%=      5-min Rain = 0
KREE 181730Z 17012KT 28/11 A2979 RMK A01 T02790106  RH  035%=      5-min Rain = 0
KREE 181735Z 18015KT 28/11 A2979 RMK A01 T02800106  RH  034%=      5-min Rain = 0
KREE 181740Z 18015G20KT 29/11 A2979 RMK A01 T02910107  RH  032%=      5-min Rain = 0
KREE 181745Z 18015KT 30/10 A2979 RMK A01 T02950103  RH  031%=      5-min Rain = 0
KREE 181750Z 20017G25KT 30/10 A2979 RMK A01 T02950104  RH  031%=      5-min Rain = 0
KREE 181755Z 19017KT 29/10 A2979 RMK A01 T02930104  RH  031%=      5-min Rain = 0
KREE 181800Z 19015KT 29/10 A2979 RMK A01 T02940104  RH  031%=      5-min Rain = 0
KREE 181805Z 20017KT 30/09 A2979 RMK A01 T02980090  RH  028%=      5-min Rain = 0
KREE 181810Z 20015KT 31/09 A2978 RMK A01 T03060088  RH  026%=      5-min Rain = 0
KREE 181815Z 20017G24KT 30/09 A2978 RMK A01 T03020087  RH  027%=      5-min Rain = 0
KREE 181820Z 18015G21KT 30/09 A2978 RMK A01 T02980092  RH  028%=      5-min Rain = 0
KREE 181825Z 20016KT 30/10 A2977 RMK A01 T03030096  RH  028%=      5-min Rain = 0
KREE 181830Z 18015KT 31/10 A2978 RMK A01 T03060098  RH  028%=      5-min Rain = 0
KREE 181835Z 18016KT 30/09 A2978 RMK A01 T03010092  RH  028%=      5-min Rain = 0
KREE 181840Z 19015KT 29/09 A2978 RMK A01 T02930090  RH  029%=      5-min Rain = 0
KREE 181845Z 18014G19KT 29/09 A2977 RMK A01 T02910089  RH  029%=      5-min Rain = 0
KREE 181850Z 18014G20KT 29/09 A2977 RMK A01 T02890087  RH  029%=      5-min Rain = 0
KREE 181855Z 18017KT 29/09 A2977 RMK A01 T02850093  RH  031%=      5-min Rain = 0
KREE 181900Z 17012KT 28/11 A2976 RMK A01 T02790105  RH  034%=      5-min Rain = 0
KREE 181905Z 17011KT 28/10 A2975 RMK A01 T02800097  RH  032%=      5-min Rain = 0
KREE 181910Z 18011KT 28/10 A2976 RMK A01 T02810096  RH  032%=      5-min Rain = 0
KREE 181915Z 18010KT 28/10 A2976 RMK A01 T02800101  RH  033%=      5-min Rain = 0
KREE 181920Z 18009KT 28/11 A2976 RMK A01 T02780111  RH  036%=      5-min Rain = 0
KREE 181925Z 18009KT 28/12 A2976 RMK A01 T02790118  RH  038%=      5-min Rain = 0
KREE 181930Z 19009KT 28/13 A2976 RMK A01 T02790129  RH  040%=      5-min Rain = 0
KREE 181935Z 19011KT 28/11 A2976 RMK A01 T02810112  RH  036%=      5-min Rain = 0
KREE 181940Z 19011KT 28/12 A2975 RMK A01 T02800118  RH  037%=      5-min Rain = 0
KREE 181945Z 18009KT 28/12 A2975 RMK A01 T02780124  RH  039%=      5-min Rain = 0
KREE 181950Z 18008KT 29/12 A2974 RMK A01 T02890115  RH  035%=      5-min Rain = 0
KREE 181955Z 18008KT 30/09 A2974 RMK A01 T02950092  RH  029%=      5-min Rain = 0
KREE 182000Z 18008KT 30/09 A2974 RMK A01 T02980092  RH  028%=      5-min Rain = 0
KREE 182005Z 17008KT 30/09 A2974 RMK A01 T03030093  RH  028%=      5-min Rain = 0
KREE 182010Z 17007G13KT 31/09 A2973 RMK A01 T03080090  RH  026%=      5-min Rain = 0
KREE 182015Z 20006KT 31/08 A2973 RMK A01 T03090084  RH  025%=      5-min Rain = 0
KREE 182020Z 21005KT 31/09 A2973 RMK A01 T03090089  RH  026%=      5-min Rain = 0
KREE 182025Z 18006KT 31/09 A2973 RMK A01 T03130091  RH  026%=      5-min Rain = 0
KREE 182030Z 19007KT 32/08 A2973 RMK A01 T03150080  RH  024%=      5-min Rain = 0
KREE 182035Z 18007KT 31/08 A2973 RMK A01 T03130080  RH  024%=      5-min Rain = 0
KREE 182040Z 18006KT 31/08 A2972 RMK A01 T03110082  RH  024%=      5-min Rain = 0
KREE 182045Z 17009G14KT 31/08 A2972 RMK A01 T03120082  RH  024%=      5-min Rain = 0
KREE 182050Z 17007KT 32/09 A2972 RMK A01 T03150085  RH  024%=      5-min Rain = 0
KREE 182055Z 19006G11KT 32/08 A2972 RMK A01 T03190078  RH  023%=      5-min Rain = 0
KREE 182100Z 18009KT 32/06 A2971 RMK A01 T03220064  RH  020%=      5-min Rain = 0
KREE 182105Z 20009KT 32/06 A2971 RMK A01 T03230062  RH  020%=      5-min Rain = 0
KREE 182110Z 21008KT 33/06 A297 RMK A01 T03250063  RH  020%=      5-min Rain = 0
KREE 182115Z 22009G14KT 33/06 A297 RMK A01 T03310055  RH  018%=      5-min Rain = 0
KREE 182120Z 22010KT 33/05 A297 RMK A01 T03300052  RH  018%=      5-min Rain = 0
KREE 182125Z 21012G17KT 33/04 A297 RMK A01 T03280044  RH  017%=      5-min Rain = 0
KREE 182130Z 20009G14KT 33/04 A297 RMK A01 T03340044  RH  016%=      5-min Rain = 0
KREE 182135Z 19011G18KT 33/03 A297 RMK A01 T03310028  RH  015%=      5-min Rain = 0
KREE 182140Z 19013G22KT 33/02 A2969 RMK A01 T03320018  RH  014%=      5-min Rain = 0
KREE 182145Z 20014KT 34/00 A2969 RMK A01 T03360002  RH  012%=      5-min Rain = 0
KREE 182150Z 19012G17KT 34/00 A2969 RMK A01 T03390004  RH  012%=      5-min Rain = 0
KREE 182155Z 21013G18KT 34/00 A2969 RMK A01 T03390002  RH  012%=      5-min Rain = 0
KREE 182200Z 22013G18KT 34/00 A2969 RMK A01 T03380000  RH  012%=      5-min Rain = 0
KREE 182205Z 23009G14KT 34/M01 A2969 RMK A01 T03361007  RH  011%=      5-min Rain = 0
KREE 182210Z 22012KT 34/M01 A2968 RMK A01 T03381006  RH  011%=      5-min Rain = 0
KREE 182215Z 20007KT 34/M00 A2968 RMK A01 T03401004  RH  011%=      5-min Rain = 0
KREE 182220Z 19013KT 34/M01 A2968 RMK A01 T03431009  RH  011%=      5-min Rain = 0
KREE 182225Z 21012G17KT 34/M02 A2968 RMK A01 T03431015  RH  010%=      5-min Rain = 0
KREE 182230Z 21012KT 34/M02 A2968 RMK A01 T03431017  RH  010%=      5-min Rain = 0
KREE 182235Z 23011G16KT 34/M02 A2968 RMK A01 T03421016  RH  010%=      5-min Rain = 0
KREE 182240Z 21012G18KT 35/M02 A2967 RMK A01 T03451024  RH  009%=      5-min Rain = 0
KREE 182245Z 21015G21KT 35/M03 A2967 RMK A01 T03451032  RH  009%=      5-min Rain = 0
KREE 182250Z 22013G18KT 35/M04 A2967 RMK A01 T03461043  RH  008%=      5-min Rain = 0
KREE 182255Z 22012G18KT 35/M06 A2967 RMK A01 T03471059  RH  007%=      5-min Rain = 0
KREE 182300Z 20014KT 35/M06 A2967 RMK A01 T03461062  RH  007%=      5-min Rain = 0
KREE 182305Z 22015G22KT 35/M07 A2967 RMK A01 T03451072  RH  007%=      5-min Rain = 0
KREE 182310Z 22016G24KT 35/M07 A2967 RMK A01 T03471072  RH  007%=      5-min Rain = 0
KREE 182315Z 22018G25KT 35/M08 A2967 RMK A01 T03461076  RH  006%=      5-min Rain = 0
KREE 182320Z 21016G25KT 34/M08 A2967 RMK A01 T03441075  RH  006%=      5-min Rain = 0
KREE 182325Z 23018G24KT 34/M08 A2967 RMK A01 T03441081  RH  006%=      5-min Rain = 0
KREE 182330Z 23014G19KT 34/M08 A2967 RMK A01 T03431082  RH  006%=      5-min Rain = 0
KREE 182335Z 20012G17KT 34/M07 A2966 RMK A01 T03441069  RH  007%=      5-min Rain = 0
KREE 182340Z 21015KT 34/M08 A2966 RMK A01 T03441078  RH  006%=      5-min Rain = 0
KREE 182345Z 22018KT 34/M08 A2966 RMK A01 T03411078  RH  006%=      5-min Rain = 0
KREE 182350Z 22016G21KT 34/M08 A2966 RMK A01 T03401078  RH  006%=      5-min Rain = 0
KREE 182355Z 22015G20KT 34/M08 A2966 RMK A01 T03391078  RH  007%=      5-min Rain = 0
KREE 190000Z 23013G18KT 34/M08 A2966 RMK A01 T03391078  RH  007%=      5-min Rain = 0
KREE 190005Z 22016G21KT 34/M08 A2966 RMK A01 T03391081  RH  006%=      5-min Rain = 0
KREE 190010Z 22015G20KT 34/M08 A2966 RMK A01 T03381084  RH  006%=      5-min Rain = 0
KREE 190015Z 21013KT 34/M09 A2966 RMK A01 T03371085  RH  006%=      5-min Rain = 0
KREE 190020Z 22014G19KT 34/M09 A2966 RMK A01 T03361092  RH  006%=      5-min Rain = 0
KREE 190025Z 23014KT 34/M10 A2966 RMK A01 T03361102  RH  006%=      5-min Rain = 0
KREE 190030Z 22012G17KT 33/M10 A2966 RMK A01 T03341095  RH  006%=      5-min Rain = 0
KREE 190035Z 23015KT 33/M11 A2966 RMK A01 T03331114  RH  005%=      5-min Rain = 0
KREE 190040Z 23013KT 33/M12 A2966 RMK A01 T03321118  RH  005%=      5-min Rain = 0
KREE 190045Z 23013G18KT 33/M12 A2966 RMK A01 T03301119  RH  005%=      5-min Rain = 0
KREE 190050Z 23013G18KT 33/M11 A2966 RMK A01 T03271114  RH  005%=      5-min Rain = 0
KREE 190055Z 22013KT 32/M11 A2966 RMK A01 T03241111  RH  005%=      5-min Rain = 0
KREE 190100Z 22013KT 32/M11 A2966 RMK A01 T03221110  RH  006%=      5-min Rain = 0
KREE 190105Z 22011KT 32/M11 A2966 RMK A01 T03191105  RH  006%=      5-min Rain = 0
KREE 190110Z 23010KT 32/M10 A2966 RMK A01 T03151104  RH  006%=      5-min Rain = 0
KREE 190115Z 23009KT 31/M10 A2967 RMK A01 T03111102  RH  006%=      5-min Rain = 0
KREE 190120Z 23009KT 31/M10 A2967 RMK A01 T03071099  RH  007%=      5-min Rain = 0
KREE 190125Z 22009KT 30/M09 A2967 RMK A01 T03001093  RH  007%=      5-min Rain = 0
KREE 190130Z 22009KT 29/M09 A2967 RMK A01 T02921091  RH  008%=      5-min Rain = 0
KREE 190135Z 21009KT 29/M09 A2967 RMK A01 T02851085  RH  008%=      5-min Rain = 0
KREE 190140Z 20008KT 28/M08 A2967 RMK A01 T02761081  RH  009%=      5-min Rain = 0
KREE 190145Z 21008KT 27/M08 A2968 RMK A01 T02711079  RH  010%=      5-min Rain = 0
KREE 190150Z 21009KT 27/M08 A2968 RMK A01 T02671079  RH  010%=      5-min Rain = 0
KREE 190155Z 22009KT 26/M08 A2968 RMK A01 T02571076  RH  011%=      5-min Rain = 0
KREE 190200Z 22009KT 25/M08 A2969 RMK A01 T02491076  RH  011%=      5-min Rain = 0
KREE 190205Z 22008KT 25/M08 A2969 RMK A01 T02461076  RH  011%=      5-min Rain = 0
KREE 190210Z 22008KT 24/M08 A2969 RMK A01 T02421076  RH  012%=      5-min Rain = 0
KREE 190215Z 22009KT 24/M08 A2969 RMK A01 T02381078  RH  012%=      5-min Rain = 0
KREE 190220Z 22009KT 23/M08 A2969 RMK A01 T02321080  RH  012%=      5-min Rain = 0
KREE 190225Z 21009KT 23/M08 A297 RMK A01 T02271084  RH  012%=      5-min Rain = 0
KREE 190230Z 18010KT 23/M08 A297 RMK A01 T02281081  RH  012%=      5-min Rain = 0
KREE 190235Z 21013G18KT 24/M08 A297 RMK A01 T02351077  RH  012%=      5-min Rain = 0
KREE 190240Z 22012KT 25/M08 A297 RMK A01 T02451083  RH  011%=      5-min Rain = 0
KREE 190245Z 22011KT 24/M09 A297 RMK A01 T02381086  RH  011%=      5-min Rain = 0
KREE 190250Z 23010KT 24/M09 A2971 RMK A01 T02361093  RH  010%=      5-min Rain = 0
KREE 190255Z 23011KT 23/M09 A2971 RMK A01 T02321094  RH  011%=      5-min Rain = 0
KREE 190300Z 23010KT 23/M10 A2971 RMK A01 T02311097  RH  011%=      5-min Rain = 0
KREE 190305Z 23009KT 23/M10 A2971 RMK A01 T02291097  RH  011%=      5-min Rain = 0
KREE 190310Z 23009KT 22/M10 A2971 RMK A01 T02241096  RH  011%=      5-min Rain = 0
KREE 190315Z 23009KT 22/M10 A2972 RMK A01 T02211098  RH  011%=      5-min Rain = 0
KREE 190320Z 24009KT 22/M10 A2972 RMK A01 T02161097  RH  012%=      5-min Rain = 0
KREE 190325Z 24011KT 21/M10 A2972 RMK A01 T02091098  RH  012%=      5-min Rain = 0
KREE 190330Z 24011KT 21/M10 A2972 RMK A01 T02111098  RH  012%=      5-min Rain = 0
KREE 190335Z 24010KT 21/M10 A2973 RMK A01 T02141099  RH  011%=      5-min Rain = 0
KREE 190340Z 24011KT 21/M10 A2973 RMK A01 T02081100  RH  012%=      5-min Rain = 0
KREE 190345Z 23009KT 21/M10 A2973 RMK A01 T02051104  RH  012%=      5-min Rain = 0
KREE 190350Z 22008KT 20/M10 A2974 RMK A01 T01961102  RH  013%=      5-min Rain = 0
KREE 190355Z 19008KT 19/M10 A2974 RMK A01 T01891099  RH  013%=      5-min Rain = 0
KREE 190400Z 15009KT 18/M08 A2975 RMK A01 T01821078  RH  016%=      5-min Rain = 0
KREE 190405Z 16012KT 20/M07 A2975 RMK A01 T01961067  RH  017%=      5-min Rain = 0
KREE 190410Z 18011KT 21/M08 A2976 RMK A01 T02081079  RH  014%=      5-min Rain = 0
KREE 190415Z 18011KT 22/M09 A2976 RMK A01 T02191092  RH  012%=      5-min Rain = 0
KREE 190420Z 18013KT 22/M09 A2976 RMK A01 T02221092  RH  012%=      5-min Rain = 0
KREE 190425Z 17014KT 23/M09 A2977 RMK A01 T02311092  RH  011%=      5-min Rain = 0
KREE 190430Z 18011KT 23/M08 A2977 RMK A01 T02311082  RH  012%=      5-min Rain = 0
KREE 190435Z 18010KT 23/M05 A2977 RMK A01 T02251047  RH  016%=      5-min Rain = 0
KREE 190440Z 18014KT 23/00 A2977 RMK A01 T022600-0  RH  023%=      5-min Rain = 0
KREE 190445Z 18014KT 23/01 A2977 RMK A01 T02260014  RH  025%=      5-min Rain = 0
KREE 190450Z 18012KT 22/03 A2977 RMK A01 T02230027  RH  028%=      5-min Rain = 0
KREE 190455Z 19011KT 22/04 A2978 RMK A01 T02190035  RH  030%=      5-min Rain = 0

Page generated in 0.0154 seconds.